createdAt,value
2022-12-13T16:59:18.160Z,76.61
2022-12-13T17:00:18.153Z,77.07
2022-12-13T17:01:18.135Z,76.86
2022-12-13T17:02:18.136Z,76.61
2022-12-13T17:03:18.112Z,76.19
2022-12-13T17:04:18.105Z,75.98
2022-12-13T17:05:18.097Z,75.67
2022-12-13T17:06:18.083Z,75.78
2022-12-13T17:07:18.076Z,75.67
2022-12-13T17:08:18.070Z,75.98
2022-12-13T17:09:18.072Z,75.63
2022-12-13T17:10:18.048Z,75.25
2022-12-13T17:11:18.034Z,75.6
2022-12-13T17:12:18.020Z,76.33
2022-12-13T17:13:18.018Z,76.33
2022-12-13T17:14:18.012Z,76.43
2022-12-13T17:15:17.998Z,76.43
2022-12-13T17:16:17.983Z,76.51
2022-12-13T17:17:17.971Z,76.51
2022-12-13T17:18:17.965Z,76.19
2022-12-13T17:19:17.953Z,75.67
2022-12-13T17:20:17.953Z,75.67
2022-12-13T17:21:17.932Z,75.42
2022-12-13T17:22:17.927Z,75.35
2022-12-13T17:23:17.920Z,75.35
2022-12-13T17:24:17.905Z,75.46
2022-12-13T17:25:20.941Z,76.12
2022-12-13T17:26:17.885Z,75.98
2022-12-13T17:27:17.873Z,76.19
2022-12-13T17:28:17.896Z,75.88
2022-12-13T17:29:17.855Z,75.98
2022-12-13T17:30:17.841Z,76.19
2022-12-13T17:31:17.832Z,75.88
2022-12-13T17:32:17.832Z,75.78
2022-12-13T17:33:17.850Z,75.91
2022-12-13T17:34:17.825Z,76.26
2022-12-13T17:35:17.873Z,76.86
2022-12-13T17:36:17.800Z,76.75
2022-12-13T17:37:18.744Z,76.61
2022-12-13T17:38:17.757Z,75.88
2022-12-13T17:39:17.751Z,76.19
2022-12-13T17:40:17.736Z,75.88
2022-12-13T17:41:17.726Z,75.98
2022-12-13T17:42:17.720Z,76.19
2022-12-13T17:43:17.714Z,75.98
2022-12-13T17:44:17.708Z,75.74
2022-12-13T17:45:17.695Z,75.53
2022-12-13T17:46:17.687Z,75.35
2022-12-13T17:47:17.671Z,75.35
2022-12-13T17:48:17.663Z,75.56
2022-12-13T17:49:17.653Z,75.7
2022-12-13T17:50:17.637Z,76.02
2022-12-13T17:51:17.724Z,76.43
2022-12-13T17:52:17.620Z,76.23
2022-12-13T17:53:17.614Z,76.79
2022-12-13T17:54:17.599Z,76.79
2022-12-13T17:55:17.598Z,76.89
2022-12-13T17:56:17.581Z,76.86
2022-12-13T17:57:17.569Z,76.68
2022-12-13T17:58:17.572Z,76.57
2022-12-13T17:59:17.548Z,76.65
2022-12-13T18:00:17.547Z,76.86
2022-12-13T18:01:18.531Z,76.65
2022-12-13T18:02:17.539Z,76.68
2022-12-13T18:03:17.504Z,76.96
2022-12-13T18:04:17.497Z,76.68
2022-12-13T18:05:17.492Z,76.96
2022-12-13T18:06:17.475Z,77.07
2022-12-13T18:07:17.466Z,76.65
2022-12-13T18:08:17.483Z,76.33
2022-12-13T18:09:17.474Z,76.68
2022-12-13T18:10:17.437Z,77
2022-12-13T18:11:17.424Z,77
2022-12-13T18:12:17.419Z,77.21
2022-12-13T18:13:17.408Z,77.21
2022-12-13T18:14:17.406Z,77.21
2022-12-13T18:15:17.389Z,77.21
2022-12-13T18:16:17.386Z,77.52
2022-12-13T18:17:17.370Z,77.62
2022-12-13T18:18:17.370Z,77.48
2022-12-13T18:19:17.353Z,77.07
2022-12-13T18:20:17.352Z,76.75
2022-12-13T18:21:17.345Z,76.79
2022-12-13T18:22:17.316Z,76.86
2022-12-13T18:23:17.302Z,76.57
2022-12-13T18:24:17.372Z,76.86
2022-12-13T18:25:17.287Z,76.23
2022-12-13T18:26:17.273Z,76.29
2022-12-13T18:27:17.276Z,75.98
2022-12-13T18:28:17.247Z,75.67
2022-12-13T18:29:17.244Z,75.21
2022-12-13T18:30:17.231Z,74.93
2022-12-13T18:31:17.218Z,75.35
2022-12-13T18:32:17.216Z,75.56
2022-12-13T18:33:17.196Z,75.49
2022-12-13T18:34:17.190Z,75.6
2022-12-13T18:35:17.177Z,0
2022-12-13T18:36:17.170Z,0
2022-12-13T18:37:17.172Z,0
2022-12-13T18:38:17.168Z,0
2022-12-13T18:39:17.138Z,0
2022-12-13T18:40:17.189Z,0
2022-12-13T18:41:17.126Z,0
2022-12-13T18:42:17.111Z,0
2022-12-13T18:43:17.121Z,0
2022-12-13T18:44:17.097Z,0
2022-12-13T18:45:17.085Z,77.56
2022-12-13T18:46:17.078Z,77.62
2022-12-13T18:47:17.100Z,77.52
2022-12-13T18:48:17.047Z,77.21
2022-12-13T18:49:17.036Z,76.86
2022-12-13T18:50:17.028Z,76.26
2022-12-13T18:51:17.048Z,76.54
2022-12-13T18:52:17.014Z,0
2022-12-13T18:53:16.998Z,76.33
2022-12-13T18:54:16.989Z,76.09
2022-12-13T18:55:16.979Z,75.6
2022-12-13T18:56:16.971Z,75.49
2022-12-13T18:57:16.956Z,75.78
2022-12-13T18:58:16.955Z,75.49
2022-12-13T18:59:16.938Z,75.7
2022-12-13T19:00:16.927Z,75.81
2022-12-13T19:01:16.924Z,75.7
2022-12-13T19:02:16.916Z,75.7
2022-12-13T19:03:16.904Z,75.81
2022-12-13T19:04:16.894Z,75.6
2022-12-13T19:05:16.875Z,75.49
2022-12-13T19:06:16.862Z,75.28
2022-12-13T19:07:16.871Z,75.6
2022-12-13T19:08:16.841Z,75.7
2022-12-13T19:09:16.835Z,75.7
2022-12-13T19:10:16.833Z,75.49
2022-12-13T19:11:16.812Z,75.49
2022-12-13T19:12:16.803Z,75.52
2022-12-13T19:13:16.861Z,75.95
2022-12-13T19:14:16.800Z,76.12
2022-12-13T19:15:16.775Z,75.91
2022-12-13T19:16:16.778Z,75.81
2022-12-13T19:17:16.754Z,75.74
2022-12-13T19:18:16.747Z,76.05
2022-12-13T19:19:16.760Z,75.95
2022-12-13T19:20:16.727Z,76.47
2022-12-13T19:21:16.717Z,76.05
2022-12-13T19:22:16.703Z,76.12
2022-12-13T19:23:16.691Z,75.7
2022-12-13T19:24:16.678Z,75.63
2022-12-13T19:25:16.672Z,75.84
2022-12-13T19:26:16.693Z,75.91
2022-12-13T19:27:16.652Z,75.81
2022-12-13T19:28:16.642Z,75.6
2022-12-13T19:29:16.633Z,75.56
2022-12-13T19:30:16.622Z,75.25
2022-12-13T19:31:16.606Z,75.04
2022-12-13T19:32:16.599Z,74.83
2022-12-13T19:33:16.595Z,74.83
2022-12-13T19:34:16.576Z,74.73
2022-12-13T19:35:16.570Z,74.83
2022-12-13T19:36:16.555Z,74.73
2022-12-13T19:37:16.548Z,74.62
2022-12-13T19:38:16.534Z,74.73
2022-12-13T19:39:16.527Z,74.48
2022-12-13T19:40:16.519Z,74.27
2022-12-13T19:41:16.504Z,74.06
2022-12-13T19:42:16.524Z,73.85
2022-12-13T19:43:16.485Z,73.96
2022-12-13T19:44:16.490Z,73.85
2022-12-13T19:45:16.466Z,73.61
2022-12-13T19:46:16.465Z,73.33
2022-12-13T19:47:16.448Z,73.22
2022-12-13T19:48:16.435Z,73.54
2022-12-13T19:49:16.438Z,73.64
2022-12-13T19:50:16.415Z,73.64
2022-12-13T19:51:16.411Z,73.85
2022-12-13T19:52:16.408Z,73.74
2022-12-13T19:53:16.387Z,73.64
2022-12-13T19:54:16.375Z,73.54
2022-12-13T19:55:16.362Z,73.61
2022-12-13T19:56:16.374Z,73.22
2022-12-13T19:57:16.342Z,73.54
2022-12-13T19:58:16.333Z,73.64
2022-12-13T19:59:16.323Z,73.85
2022-12-13T20:00:16.323Z,73.74
2022-12-13T20:01:16.303Z,73.54
2022-12-13T20:02:16.311Z,73.5
2022-12-13T20:03:16.283Z,73.39
2022-12-13T20:04:16.269Z,73.54
2022-12-13T20:05:16.260Z,73.33
2022-12-13T20:06:16.254Z,73.96
2022-12-13T20:07:16.244Z,74.06
2022-12-13T20:08:16.225Z,73.64
2022-12-13T20:09:16.227Z,73.92
2022-12-13T20:10:16.212Z,73.61
2022-12-13T20:11:16.211Z,73.39
2022-12-13T20:12:16.207Z,72.87
2022-12-13T20:13:16.196Z,73.08
2022-12-13T20:14:16.171Z,73.29
2022-12-13T20:15:16.160Z,73.15
2022-12-13T20:16:16.150Z,72.87
2022-12-13T20:17:16.153Z,72.98
2022-12-13T20:18:16.136Z,73.29
2022-12-13T20:19:16.123Z,73.5
2022-12-13T20:20:16.129Z,73.05
2022-12-13T20:21:16.099Z,72.84
2022-12-13T20:22:16.087Z,72.74
2022-12-13T20:23:16.104Z,72.31
2022-12-13T20:24:16.067Z,72.63
2022-12-13T20:25:16.082Z,72.42
2022-12-13T20:26:16.044Z,72.52
2022-12-13T20:27:16.047Z,72.77
2022-12-13T20:28:16.035Z,72.45
2022-12-13T20:29:16.016Z,72.87
2022-12-13T20:30:16.006Z,73.19
2022-12-13T20:31:16.007Z,73.29
2022-12-13T20:32:15.987Z,72.87
2022-12-13T20:33:15.990Z,72.87
2022-12-13T20:34:15.969Z,73.08
2022-12-13T20:35:15.957Z,72.87
2022-12-13T20:36:15.975Z,72.84
2022-12-13T20:37:15.936Z,72.74
2022-12-13T20:38:15.942Z,72.56
2022-12-13T20:39:15.910Z,72.74
2022-12-13T20:40:15.911Z,0
2022-12-13T20:41:15.896Z,0
2022-12-13T20:42:15.892Z,72.52
2022-12-13T20:43:15.891Z,72.21
2022-12-13T20:44:15.876Z,72.31
2022-12-13T20:45:15.866Z,72.21
2022-12-13T20:46:16.874Z,72.07
2022-12-13T20:47:15.836Z,71.69
2022-12-13T20:48:15.836Z,71.79
2022-12-13T20:49:15.816Z,71.79
2022-12-13T20:50:15.803Z,72.14
2022-12-13T20:51:15.803Z,72.45
2022-12-13T20:52:15.799Z,72.87
2022-12-13T20:53:15.767Z,72.66
2022-12-13T20:54:15.782Z,72.77
2022-12-13T20:55:15.777Z,72.87
2022-12-13T20:56:15.758Z,73.43
2022-12-13T20:57:15.731Z,73.5
2022-12-13T20:58:15.717Z,73.08
2022-12-13T20:59:15.712Z,73.05
2022-12-13T21:00:15.701Z,72.77
2022-12-13T21:01:15.706Z,73.19
2022-12-13T21:02:15.685Z,73.08
2022-12-13T21:03:15.699Z,73.19
2022-12-13T21:04:15.660Z,73.5
2022-12-13T21:05:15.663Z,73.19
2022-12-13T21:06:15.637Z,73.15
2022-12-13T21:07:15.632Z,72.94
2022-12-13T21:08:15.652Z,72.63
2022-12-13T21:09:15.626Z,72.74
2022-12-13T21:10:15.592Z,73.15
2022-12-13T21:11:15.591Z,72.56
2022-12-13T21:12:15.575Z,73.29
2022-12-13T21:13:15.563Z,73.89
2022-12-13T21:14:15.564Z,73.36
2022-12-13T21:15:15.545Z,72.84
2022-12-13T21:16:15.541Z,73.02
2022-12-13T21:17:15.532Z,72.74
2022-12-13T21:18:15.512Z,72.74
2022-12-13T21:19:15.508Z,73.05
2022-12-13T21:20:15.510Z,72.91
2022-12-13T21:21:15.483Z,72.6
2022-12-13T21:22:15.474Z,72.28
2022-12-13T21:23:15.468Z,72.28
2022-12-13T21:24:15.468Z,72.52
2022-12-13T21:25:15.441Z,72.81
2022-12-13T21:26:15.432Z,72.94
2022-12-13T21:27:15.423Z,72.84
2022-12-13T21:28:15.410Z,73.05
2022-12-13T21:29:15.402Z,73.02
2022-12-13T21:30:15.394Z,72.81
2022-12-13T21:31:15.382Z,72.81
2022-12-13T21:32:15.369Z,72.91
2022-12-13T21:33:15.361Z,72.7
2022-12-13T21:34:15.359Z,72.94
2022-12-13T21:35:15.339Z,73.12
2022-12-13T21:36:15.328Z,72.7
2022-12-13T21:37:15.318Z,72.81
2022-12-13T21:38:15.308Z,72.56
2022-12-13T21:39:15.301Z,72.39
2022-12-13T21:40:15.293Z,72.35
2022-12-13T21:41:15.282Z,72.18
2022-12-13T21:42:15.267Z,72.49
2022-12-13T21:43:15.257Z,72.46
2022-12-13T21:44:15.249Z,72.14
2022-12-13T21:45:15.251Z,71.94
2022-12-13T21:46:15.250Z,72.04
2022-12-13T21:47:15.220Z,72.04
2022-12-13T21:48:15.213Z,71.83
2022-12-13T21:49:15.200Z,71.73
2022-12-13T21:50:15.186Z,72.28
2022-12-13T21:51:15.180Z,72.07
2022-12-13T21:52:15.179Z,72.07
2022-12-13T21:53:15.157Z,72.6
2022-12-13T21:54:15.148Z,72.6
2022-12-13T21:55:15.136Z,72.52
2022-12-13T21:56:15.126Z,72.81
2022-12-13T21:57:15.117Z,72.81
2022-12-13T21:58:15.113Z,72.6
2022-12-13T21:59:15.096Z,72.39
2022-12-13T22:00:15.086Z,72.6
2022-12-13T22:01:15.089Z,72.25
2022-12-13T22:02:15.087Z,71.86
2022-12-13T22:03:15.055Z,72.39
2022-12-13T22:04:15.060Z,72.28
2022-12-13T22:05:15.041Z,72.6
2022-12-13T22:06:15.023Z,72.52
2022-12-13T22:07:15.030Z,73.26
2022-12-13T22:08:15.009Z,73.15
2022-12-13T22:09:14.993Z,73.22
2022-12-13T22:10:14.989Z,73.05
2022-12-13T22:11:15.008Z,73.26
2022-12-13T22:12:14.969Z,73.36
2022-12-13T22:13:14.969Z,73.36
2022-12-13T22:14:14.942Z,73.15
2022-12-13T22:15:14.933Z,73.26
2022-12-13T22:16:14.927Z,73.36
2022-12-13T22:17:14.946Z,73.22
2022-12-13T22:18:14.903Z,72.91
2022-12-13T22:19:14.904Z,72.81
2022-12-13T22:20:14.885Z,72.81
2022-12-13T22:21:14.884Z,72.6
2022-12-13T22:22:14.869Z,72.49
2022-12-13T22:23:14.855Z,72.35
2022-12-13T22:24:14.842Z,72.35
2022-12-13T22:25:14.836Z,72.07
2022-12-13T22:26:14.829Z,72.39
2022-12-13T22:27:14.812Z,72.11
2022-12-13T22:28:14.807Z,73.02
2022-12-13T22:29:14.802Z,72.81
2022-12-13T22:30:14.782Z,72.7
2022-12-13T22:31:14.795Z,72.7
2022-12-13T22:32:14.783Z,72.39
2022-12-13T22:33:14.751Z,73.02
2022-12-13T22:34:14.745Z,72.67
2022-12-13T22:35:14.736Z,72.49
2022-12-13T22:36:14.727Z,72.91
2022-12-13T22:37:14.715Z,72.6
2022-12-13T22:38:14.702Z,72.6
2022-12-13T22:39:14.693Z,72.49
2022-12-13T22:40:14.684Z,72.49
2022-12-13T22:41:14.706Z,72.46
2022-12-13T22:42:14.661Z,72.39
2022-12-13T22:43:14.655Z,72.18
2022-12-13T22:44:14.640Z,72.6
2022-12-13T22:45:14.641Z,72.39
2022-12-13T22:46:14.624Z,72.49
2022-12-13T22:47:14.613Z,72.7
2022-12-13T22:48:14.604Z,72.6
2022-12-13T22:49:14.596Z,72.39
2022-12-13T22:50:14.585Z,72.7
2022-12-13T22:51:14.569Z,72.63
2022-12-13T22:52:14.560Z,73.12
2022-12-13T22:53:14.552Z,72.81
2022-12-13T22:54:14.542Z,72.35
2022-12-13T22:55:14.529Z,72.35
2022-12-13T22:56:14.519Z,72.25
2022-12-13T22:57:14.511Z,72.25
2022-12-13T22:58:14.508Z,72.04
2022-12-13T22:59:14.493Z,72.04
2022-12-13T23:00:14.482Z,71.83
2022-12-13T23:01:14.474Z,72.14
2022-12-13T23:02:14.457Z,72.46
2022-12-13T23:03:14.450Z,72.14
2022-12-13T23:04:14.441Z,71.83
2022-12-13T23:05:14.427Z,71.73
2022-12-13T23:06:14.423Z,71.83
2022-12-13T23:07:14.429Z,71.8
2022-12-13T23:08:14.411Z,71.59
2022-12-13T23:09:14.388Z,71.73
2022-12-13T23:10:14.377Z,71.69
2022-12-13T23:11:14.373Z,71.59
2022-12-13T23:12:14.356Z,71.28
2022-12-13T23:13:14.347Z,71.38
2022-12-13T23:14:14.339Z,71.14
2022-12-13T23:15:14.345Z,71.14
2022-12-13T23:16:14.314Z,71.14
2022-12-13T23:17:14.310Z,71.03
2022-12-13T23:18:14.296Z,71.03
2022-12-13T23:19:14.285Z,71.03
2022-12-13T23:20:14.278Z,70.83
2022-12-13T23:21:14.264Z,70.72
2022-12-13T23:22:14.256Z,70.83
2022-12-13T23:23:14.259Z,70.93
2022-12-13T23:24:14.248Z,70.93
2022-12-13T23:25:14.225Z,70.83
2022-12-13T23:26:14.217Z,70.61
2022-12-13T23:27:14.209Z,70.75
2022-12-13T23:28:14.202Z,70.99
2022-12-13T23:29:14.184Z,71.51
2022-12-13T23:30:14.176Z,71.62
2022-12-13T23:31:14.179Z,71.69
2022-12-13T23:32:14.156Z,71.48
2022-12-13T23:33:14.147Z,71.28
2022-12-13T23:34:14.138Z,71.24
2022-12-13T23:35:14.159Z,70.96
2022-12-13T23:36:14.119Z,70.96
2022-12-13T23:37:14.116Z,71.17
2022-12-13T23:38:14.096Z,70.96
2022-12-13T23:39:14.089Z,70.96
2022-12-13T23:40:14.079Z,71.69
2022-12-13T23:41:14.066Z,71.69
2022-12-13T23:42:14.056Z,71.69
2022-12-13T23:43:14.044Z,71.38
2022-12-13T23:44:14.035Z,71.48
2022-12-13T23:45:14.027Z,71.73
2022-12-13T23:46:14.019Z,71.8
2022-12-13T23:47:14.009Z,71.48
2022-12-13T23:48:14.032Z,71.59
2022-12-13T23:49:13.996Z,71.56
2022-12-13T23:50:13.992Z,71.34
2022-12-13T23:51:13.967Z,71.14
2022-12-13T23:52:13.956Z,71.06
2022-12-13T23:53:13.947Z,71.17
2022-12-13T23:54:13.933Z,71.03
2022-12-13T23:55:13.929Z,71.06
2022-12-13T23:56:13.916Z,71.17
2022-12-13T23:57:13.902Z,71.48
2022-12-13T23:58:13.904Z,71.28
2022-12-13T23:59:13.913Z,71.28
